Time;durP1;ratioP1;P1;durP2;ratioP2;P2;SDS_P1;SDS_P2;PMS_P1;PMS_P2;Temp;Humidity;BMP_temperature;BMP_pressure;BME280_temperature;BME280_humidity;BME280_pressure;Samples;Min_cycle;Max_cycle;Signal;HPM_P1;HPM_P2
2021/10/18 00:02:14;;;;;;;10.50;7.55;;;;;;;;;;4993660;28;20129;-66
2021/10/18 00:05:00;;;;;;;10.48;8.13;;;;;;;;;;4993248;28;20054;-66
2021/10/18 00:07:45;;;;;;;10.85;8.10;;;;;;;;;;4993891;28;20061;-66
2021/10/18 00:10:30;;;;;;;12.35;9.02;;;;;;;;;;4993617;28;20121;-65
2021/10/18 00:13:15;;;;;;;12.05;8.50;;;;;;;;;;4993308;28;20050;-67
2021/10/18 00:16:01;;;;;;;10.15;7.88;;;;;;;;;;4992598;28;20493;-67
2021/10/18 00:18:46;;;;;;;9.93;7.15;;;;;;;;;;4993420;28;20129;-66
2021/10/18 00:21:31;;;;;;;11.70;8.38;;;;;;;;;;4993332;28;20093;-66
2021/10/18 00:24:17;;;;;;;10.80;7.70;;;;;;;;;;4992839;28;20058;-67
2021/10/18 00:27:02;;;;;;;12.95;8.20;;;;;;;;;;4993220;28;20054;-67
2021/10/18 00:29:47;;;;;;;9.35;7.72;;;;;;;;;;4993192;28;20053;-65
2021/10/18 00:32:33;;;;;;;12.18;7.90;;;;;;;;;;4992943;28;20125;-66
2021/10/18 00:35:18;;;;;;;8.40;7.50;;;;;;;;;;4992544;28;20508;-67
2021/10/18 00:38:03;;;;;;;11.98;8.20;;;;;;;;;;4993122;28;20425;-67
2021/10/18 00:40:49;;;;;;;8.63;7.63;;;;;;;;;;4992868;28;20501;-66
2021/10/18 00:43:34;;;;;;;11.77;7.70;;;;;;;;;;4992685;28;20050;-66
2021/10/18 00:46:23;;;;;;;13.30;7.78;;;;;;;;;;4992949;28;20054;-67
2021/10/18 00:49:08;;;;;;;13.32;9.00;;;;;;;;;;4992565;28;20054;-67
2021/10/18 00:51:54;;;;;;;11.13;8.02;;;;;;;;;;4992912;28;20054;-65
2021/10/18 00:54:39;;;;;;;12.55;8.43;;;;;;;;;;4991419;28;20102;-67
2021/10/18 00:57:24;;;;;;;9.60;8.65;;;;;;;;;;4991743;28;20129;-66
2021/10/18 01:00:10;;;;;;;12.25;8.60;;;;;;;;;;4991864;28;20053;-67
2021/10/18 01:02:55;;;;;;;12.10;8.77;;;;;;;;;;4992739;28;20050;-67
2021/10/18 01:05:41;;;;;;;10.35;8.13;;;;;;;;;;4992640;28;20054;-66
2021/10/18 01:08:26;;;;;;;11.73;8.52;;;;;;;;;;4991910;28;20456;-67
2021/10/18 01:11:11;;;;;;;16.30;10.07;;;;;;;;;;4992775;28;20402;-67
2021/10/18 01:13:56;;;;;;;12.35;9.13;;;;;;;;;;4990950;28;20050;-67
2021/10/18 01:16:41;;;;;;;13.85;8.85;;;;;;;;;;4992654;28;20126;-65
2021/10/18 01:19:27;;;;;;;10.73;8.95;;;;;;;;;;4992740;28;20127;-66
2021/10/18 01:22:12;;;;;;;14.35;10.18;;;;;;;;;;4992459;28;20704;-66
2021/10/18 01:24:58;;;;;;;11.15;8.75;;;;;;;;;;4992258;28;20061;-66
2021/10/18 01:27:43;;;;;;;13.80;9.35;;;;;;;;;;4994587;28;20090;-66
2021/10/18 01:30:28;;;;;;;13.23;9.68;;;;;;;;;;4996419;28;20121;-66
2021/10/18 01:33:14;;;;;;;15.90;10.50;;;;;;;;;;4996621;28;20070;-66
2021/10/18 01:35:59;;;;;;;14.60;10.13;;;;;;;;;;4996410;28;20115;-65
2021/10/18 01:38:45;;;;;;;15.65;9.80;;;;;;;;;;4996190;28;20583;-65
2021/10/18 01:41:30;;;;;;;14.43;10.57;;;;;;;;;;4996457;28;20050;-66
2021/10/18 01:44:15;;;;;;;13.73;9.68;;;;;;;;;;4995950;28;20050;-66
2021/10/18 01:47:01;;;;;;;12.88;10.38;;;;;;;;;;4996097;28;20428;-66
2021/10/18 01:49:46;;;;;;;11.95;9.70;;;;;;;;;;4996240;28;20050;-66
2021/10/18 01:52:31;;;;;;;13.57;10.68;;;;;;;;;;4996105;28;20050;-66
2021/10/18 01:55:17;;;;;;;12.60;10.50;;;;;;;;;;4995643;28;20456;-66
2021/10/18 01:58:02;;;;;;;16.40;10.70;;;;;;;;;;4995883;28;20054;-66
2021/10/18 02:00:47;;;;;;;12.57;10.25;;;;;;;;;;4996197;28;20050;-66
2021/10/18 02:03:33;;;;;;;13.40;10.82;;;;;;;;;;5037191;22;20129;-68
2021/10/18 02:06:19;;;;;;;16.48;10.48;;;;;;;;;;4995599;28;20058;-66
2021/10/18 02:09:04;;;;;;;13.07;10.82;;;;;;;;;;4996004;28;20043;-65
2021/10/18 02:11:50;;;;;;;13.60;10.57;;;;;;;;;;4994298;28;20058;-67
2021/10/18 02:14:35;;;;;;;15.65;10.18;;;;;;;;;;4980278;28;20078;-65
2021/10/18 02:17:20;;;;;;;11.82;10.63;;;;;;;;;;4995420;28;20062;-66
2021/10/18 02:20:10;;;;;;;12.63;10.93;;;;;;;;;;4995642;28;20054;-65
2021/10/18 02:22:55;;;;;;;14.65;11.43;;;;;;;;;;4995339;28;20508;-66
2021/10/18 02:25:40;;;;;;;16.92;11.98;;;;;;;;;;4995283;28;20082;-65
2021/10/18 02:28:26;;;;;;;15.18;10.93;;;;;;;;;;4995547;28;20055;-65
2021/10/18 02:31:11;;;;;;;15.80;12.13;;;;;;;;;;4993903;28;20058;-65
2021/10/18 02:33:57;;;;;;;15.30;11.73;;;;;;;;;;4992543;28;20058;-65
2021/10/18 02:36:41;;;;;;;16.48;10.90;;;;;;;;;;4994624;28;20047;-65
2021/10/18 02:39:27;;;;;;;15.52;11.68;;;;;;;;;;4994716;28;20050;-65
2021/10/18 02:42:12;;;;;;;17.55;12.85;;;;;;;;;;4993836;28;20421;-67
2021/10/18 02:44:57;;;;;;;15.07;11.02;;;;;;;;;;4994804;28;20492;-65
2021/10/18 02:47:42;;;;;;;16.48;13.10;;;;;;;;;;4994976;28;20420;-67
2021/10/18 02:50:28;;;;;;;18.48;13.10;;;;;;;;;;4994918;28;20054;-65
2021/10/18 02:53:13;;;;;;;16.38;13.00;;;;;;;;;;4993883;28;20429;-66
2021/10/18 02:55:58;;;;;;;21.30;13.15;;;;;;;;;;4994929;28;20460;-65
2021/10/18 02:58:43;;;;;;;18.73;12.80;;;;;;;;;;4994661;28;20054;-65
2021/10/18 03:01:29;;;;;;;15.85;12.77;;;;;;;;;;4994662;28;20129;-66
2021/10/18 03:04:14;;;;;;;19.92;13.55;;;;;;;;;;4994268;28;20054;-66
2021/10/18 03:06:59;;;;;;;25.48;13.77;;;;;;;;;;4994816;28;20090;-66
2021/10/18 03:09:44;;;;;;;18.73;14.15;;;;;;;;;;4994653;28;20129;-65
2021/10/18 03:12:30;;;;;;;19.02;14.48;;;;;;;;;;4993305;28;20070;-65
2021/10/18 03:15:15;;;;;;;21.90;15.80;;;;;;;;;;4994223;28;20058;-65
2021/10/18 03:18:01;;;;;;;19.77;15.63;;;;;;;;;;4994517;28;20050;-66
2021/10/18 03:20:46;;;;;;;19.38;15.35;;;;;;;;;;4994413;28;20050;-65
2021/10/18 03:23:32;;;;;;;21.77;15.25;;;;;;;;;;4992631;28;20058;-65
2021/10/18 03:26:17;;;;;;;19.08;14.93;;;;;;;;;;4993060;28;20058;-65
2021/10/18 03:29:02;;;;;;;25.85;16.70;;;;;;;;;;4994190;28;20058;-65
2021/10/18 03:31:47;;;;;;;21.30;16.55;;;;;;;;;;4994358;28;20050;-67
2021/10/18 03:34:33;;;;;;;19.23;16.83;;;;;;;;;;4992848;28;20133;-65
2021/10/18 03:37:18;;;;;;;20.35;16.77;;;;;;;;;;4992794;28;20121;-65
2021/10/18 03:40:03;;;;;;;19.52;16.38;;;;;;;;;;4992909;28;20054;-65
2021/10/18 03:42:48;;;;;;;29.45;17.17;;;;;;;;;;4994046;28;20051;-66
2021/10/18 03:45:34;;;;;;;20.70;16.52;;;;;;;;;;4993594;28;20125;-66
2021/10/18 03:48:20;;;;;;;21.25;17.02;;;;;;;;;;4993777;28;20050;-65
2021/10/18 03:51:07;;;;;;;21.92;17.67;;;;;;;;;;4991753;28;20066;-65
2021/10/18 03:53:52;;;;;;;24.13;17.63;;;;;;;;;;4993442;28;20062;-66
2021/10/18 03:56:37;;;;;;;22.27;16.95;;;;;;;;;;4992388;28;20054;-65
2021/10/18 03:59:22;;;;;;;25.60;17.48;;;;;;;;;;4993572;28;20121;-66
2021/10/18 04:02:08;;;;;;;22.25;17.75;;;;;;;;;;4993633;28;20050;-65
2021/10/18 04:04:53;;;;;;;25.85;17.83;;;;;;;;;;4991980;28;20058;-65
2021/10/18 04:07:39;;;;;;;24.48;18.02;;;;;;;;;;4992320;28;20500;-66
2021/10/18 04:10:24;;;;;;;22.65;17.83;;;;;;;;;;4993496;28;20055;-65
2021/10/18 04:13:10;;;;;;;23.40;16.90;;;;;;;;;;4992059;28;20077;-65
2021/10/18 04:15:55;;;;;;;24.10;17.70;;;;;;;;;;4991978;28;20523;-66
2021/10/18 04:18:40;;;;;;;22.88;18.00;;;;;;;;;;4993420;28;20121;-65
2021/10/18 04:21:25;;;;;;;24.38;17.60;;;;;;;;;;4993237;28;20064;-66
2021/10/18 04:24:10;;;;;;;21.92;17.50;;;;;;;;;;4991922;28;20124;-67
2021/10/18 04:26:56;;;;;;;21.15;17.65;;;;;;;;;;4992120;28;20631;-65
2021/10/18 04:29:41;;;;;;;22.88;16.83;;;;;;;;;;4992924;28;20093;-65
2021/10/18 04:32:27;;;;;;;27.15;17.30;;;;;;;;;;4992270;28;20054;-65
2021/10/18 04:35:12;;;;;;;19.83;16.90;;;;;;;;;;4991430;28;20129;-65
2021/10/18 04:37:57;;;;;;;25.98;17.02;;;;;;;;;;5005932;28;20054;-67
2021/10/18 04:40:45;;;;;;;25.15;17.55;;;;;;;;;;4992196;28;20060;-67
2021/10/18 04:43:30;;;;;;;20.42;16.27;;;;;;;;;;4992647;28;20505;-68
2021/10/18 04:46:16;;;;;;;23.88;17.40;;;;;;;;;;4992989;28;20054;-66
2021/10/18 04:49:01;;;;;;;27.50;18.40;;;;;;;;;;4991587;28;20050;-66
2021/10/18 04:51:46;;;;;;;22.45;18.23;;;;;;;;;;4991647;28;20102;-66
2021/10/18 04:54:32;;;;;;;23.30;17.08;;;;;;;;;;4992724;28;20058;-66
2021/10/18 04:57:17;;;;;;;24.52;19.17;;;;;;;;;;4992809;28;20054;-66
2021/10/18 05:00:02;;;;;;;23.63;17.83;;;;;;;;;;4992827;28;20046;-66
2021/10/18 05:02:47;;;;;;;24.80;18.38;;;;;;;;;;4991733;28;20050;-66
2021/10/18 05:05:34;;;;;;;25.23;18.63;;;;;;;;;;4992202;28;20054;-66
2021/10/18 05:08:19;;;;;;;22.05;17.95;;;;;;;;;;4991384;28;20054;-66
2021/10/18 05:11:04;;;;;;;28.90;19.10;;;;;;;;;;4991364;28;20213;-66
2021/10/18 05:13:50;;;;;;;26.23;19.52;;;;;;;;;;4992237;28;20054;-66
2021/10/18 05:16:35;;;;;;;28.05;19.90;;;;;;;;;;4991234;28;20053;-66
2021/10/18 05:19:20;;;;;;;25.67;19.40;;;;;;;;;;4992638;28;20051;-66
2021/10/18 05:22:05;;;;;;;25.98;19.85;;;;;;;;;;4991226;28;20058;-66
2021/10/18 05:24:50;;;;;;;28.75;21.52;;;;;;;;;;4991072;28;20058;-66
2021/10/18 05:27:36;;;;;;;25.67;20.48;;;;;;;;;;4992621;28;20379;-66
2021/10/18 05:30:30;;;;;;;26.10;19.85;;;;;;;;;;4991432;28;20054;-66
2021/10/18 05:33:15;;;;;;;26.05;20.92;;;;;;;;;;4991339;28;20058;-66
2021/10/18 05:36:00;;;;;;;30.27;22.67;;;;;;;;;;4992897;28;20121;-66
2021/10/18 05:38:46;;;;;;;32.00;23.35;;;;;;;;;;4992325;28;20050;-66
2021/10/18 05:41:31;;;;;;;30.08;22.77;;;;;;;;;;4992546;28;20042;-65
2021/10/18 05:44:16;;;;;;;25.88;21.92;;;;;;;;;;4990558;28;20082;-63
2021/10/18 05:47:03;;;;;;;31.23;23.38;;;;;;;;;;4991670;28;20054;-63
2021/10/18 05:49:48;;;;;;;27.95;22.40;;;;;;;;;;4992112;28;20058;-63
2021/10/18 05:52:34;;;;;;;27.80;22.25;;;;;;;;;;4992397;28;20129;-63
2021/10/18 05:55:19;;;;;;;32.75;22.65;;;;;;;;;;4991831;28;20054;-63
2021/10/18 05:58:05;;;;;;;29.30;23.17;;;;;;;;;;4992502;28;20140;-65
2021/10/18 06:00:50;;;;;;;33.17;25.60;;;;;;;;;;4992470;28;20054;-64
2021/10/18 06:03:37;;;;;;;29.05;23.33;;;;;;;;;;4991682;28;20500;-64
2021/10/18 06:06:23;;;;;;;30.48;23.83;;;;;;;;;;4992335;28;20050;-64
2021/10/18 06:09:10;;;;;;;31.17;24.48;;;;;;;;;;4992344;28;20475;-63
2021/10/18 06:11:55;;;;;;;31.95;25.42;;;;;;;;;;4992147;28;20413;-66
2021/10/18 06:14:40;;;;;;;35.22;25.65;;;;;;;;;;4995236;28;20052;-63
2021/10/18 06:17:25;;;;;;;33.65;25.85;;;;;;;;;;4995711;28;20464;-64
2021/10/18 06:20:11;;;;;;;32.70;26.10;;;;;;;;;;4995553;28;20046;-64
2021/10/18 06:22:56;;;;;;;32.47;25.25;;;;;;;;;;4995446;28;20504;-63
2021/10/18 06:25:42;;;;;;;32.65;26.23;;;;;;;;;;4995089;28;20416;-63
2021/10/18 06:28:27;;;;;;;34.88;25.40;;;;;;;;;;4995575;28;20046;-63
2021/10/18 06:31:12;;;;;;;31.77;25.05;;;;;;;;;;4995582;28;20054;-63
2021/10/18 06:33:57;;;;;;;33.03;25.08;;;;;;;;;;4994973;28;20050;-64
2021/10/18 06:36:43;;;;;;;35.30;25.45;;;;;;;;;;4995114;28;20121;-63
2021/10/18 06:39:28;;;;;;;33.75;25.58;;;;;;;;;;4995136;28;20125;-63
2021/10/18 06:42:13;;;;;;;37.08;25.85;;;;;;;;;;4995225;28;20448;-65
2021/10/18 06:44:58;;;;;;;30.65;24.90;;;;;;;;;;4994746;28;20046;-65
2021/10/18 06:47:44;;;;;;;29.42;25.00;;;;;;;;;;4995191;28;20058;-65
2021/10/18 06:50:30;;;;;;;30.70;24.30;;;;;;;;;;4995272;28;20121;-65
2021/10/18 06:53:21;;;;;;;34.45;25.52;;;;;;;;;;4994926;28;20054;-65
2021/10/18 06:56:06;;;;;;;31.80;24.45;;;;;;;;;;4994676;28;20050;-65
2021/10/18 06:58:52;;;;;;;33.63;24.48;;;;;;;;;;4995031;28;20050;-65
2021/10/18 07:01:37;;;;;;;33.42;24.08;;;;;;;;;;4994832;28;20050;-65
2021/10/18 07:04:23;;;;;;;28.75;25.08;;;;;;;;;;4994485;28;20051;-65
2021/10/18 07:07:08;;;;;;;28.35;23.35;;;;;;;;;;4994710;28;20058;-65
2021/10/18 07:10:02;;;;;;;28.67;23.45;;;;;;;;;;4994565;28;20121;-65
2021/10/18 07:12:47;;;;;;;26.33;22.85;;;;;;;;;;4994883;28;20137;-65
2021/10/18 07:15:32;;;;;;;29.33;21.33;;;;;;;;;;4994246;28;20125;-65
2021/10/18 07:18:18;;;;;;;26.15;22.02;;;;;;;;;;4994449;28;20050;-65
2021/10/18 07:21:03;;;;;;;29.85;22.05;;;;;;;;;;4994456;28;20062;-65
2021/10/18 07:23:52;;;;;;;26.45;20.67;;;;;;;;;;4993979;28;20050;-65
2021/10/18 07:26:37;;;;;;;27.00;21.48;;;;;;;;;;4994374;28;20050;-65
2021/10/18 07:29:22;;;;;;;26.73;20.58;;;;;;;;;;4994415;28;20133;-65
2021/10/18 07:32:08;;;;;;;24.35;19.95;;;;;;;;;;4994483;28;20121;-65
2021/10/18 07:34:56;;;;;;;26.63;20.95;;;;;;;;;;4993987;28;20050;-65
2021/10/18 07:37:43;;;;;;;27.42;21.70;;;;;;;;;;4993963;28;20054;-65
2021/10/18 07:40:28;;;;;;;27.67;19.38;;;;;;;;;;4994234;28;20054;-65
2021/10/18 07:43:13;;;;;;;24.25;18.98;;;;;;;;;;4994042;28;20050;-65
2021/10/18 07:45:59;;;;;;;25.30;19.92;;;;;;;;;;4994108;28;20150;-64
2021/10/18 07:48:44;;;;;;;25.67;20.75;;;;;;;;;;4994148;28;20051;-65
2021/10/18 07:51:29;;;;;;;25.73;20.25;;;;;;;;;;4993976;28;20420;-65
2021/10/18 07:54:15;;;;;;;24.10;19.45;;;;;;;;;;4993341;28;20567;-64
2021/10/18 07:57:00;;;;;;;28.13;19.02;;;;;;;;;;4993775;28;20129;-65
2021/10/18 07:59:45;;;;;;;28.02;19.90;;;;;;;;;;4993771;28;20125;-65
2021/10/18 08:02:31;;;;;;;27.50;20.48;;;;;;;;;;4993604;28;20058;-63
2021/10/18 08:05:17;;;;;;;25.02;20.45;;;;;;;;;;5044126;23;20061;-63
2021/10/18 08:08:04;;;;;;;29.15;20.58;;;;;;;;;;5012947;28;20061;-63
2021/10/18 08:10:49;;;;;;;26.48;19.70;;;;;;;;;;5012809;28;20057;-63
2021/10/18 08:13:35;;;;;;;25.60;20.10;;;;;;;;;;5012727;28;20570;-63
2021/10/18 08:16:20;;;;;;;24.50;21.23;;;;;;;;;;4993278;28;20050;-63
2021/10/18 08:19:05;;;;;;;22.67;19.67;;;;;;;;;;4993376;28;20058;-63
2021/10/18 08:21:51;;;;;;;25.88;20.98;;;;;;;;;;4993464;28;20471;-62
2021/10/18 08:24:36;;;;;;;24.83;20.60;;;;;;;;;;4992962;28;20085;-63
2021/10/18 08:27:21;;;;;;;23.58;19.90;;;;;;;;;;4993186;28;20058;-64
2021/10/18 08:30:07;;;;;;;25.55;20.73;;;;;;;;;;4993036;28;20520;-63
2021/10/18 08:32:52;;;;;;;23.35;20.38;;;;;;;;;;4993362;28;20058;-64
2021/10/18 08:35:38;;;;;;;24.60;21.00;;;;;;;;;;4989480;28;20058;-64
2021/10/18 08:44:16;;;;;;;25.95;21.60;;;;;;;;;;4980348;28;20406;-64
2021/10/18 08:47:02;;;;;;;23.73;21.02;;;;;;;;;;4981768;28;20063;-64
2021/10/18 08:49:48;;;;;;;28.58;21.85;;;;;;;;;;4993543;28;20055;-64
2021/10/18 08:52:35;;;;;;;26.80;21.52;;;;;;;;;;4977396;28;20090;-64
2021/10/18 08:55:20;;;;;;;27.85;23.70;;;;;;;;;;4973110;28;20054;-64
2021/10/18 08:58:05;;;;;;;25.27;21.75;;;;;;;;;;4973289;28;20050;-63
2021/10/18 09:00:51;;;;;;;27.65;21.17;;;;;;;;;;4973191;28;20054;-64
2021/10/18 09:03:36;;;;;;;25.08;21.90;;;;;;;;;;4972167;28;20063;-64
2021/10/18 09:06:22;;;;;;;28.13;23.65;;;;;;;;;;4979010;28;20122;-64
2021/10/18 09:09:08;;;;;;;24.25;20.67;;;;;;;;;;4979510;28;20054;-64
2021/10/18 09:11:54;;;;;;;25.88;21.05;;;;;;;;;;4980869;28;20055;-64
2021/10/18 09:14:39;;;;;;;23.70;20.10;;;;;;;;;;4974322;28;20424;-64
2021/10/18 09:17:31;;;;;;;26.63;21.25;;;;;;;;;;4973007;28;20046;-63
2021/10/18 09:20:25;;;;;;;22.17;19.67;;;;;;;;;;4972927;28;20125;-63
2021/10/18 09:23:28;;;;;;;26.58;22.40;;;;;;;;;;4973010;28;20055;-64
2021/10/18 09:26:13;;;;;;;22.13;18.83;;;;;;;;;;4973167;28;20645;-64
2021/10/18 09:29:02;;;;;;;23.77;21.00;;;;;;;;;;4972979;28;20133;-64
2021/10/18 09:31:57;;;;;;;24.77;19.83;;;;;;;;;;4972801;28;20058;-63
2021/10/18 09:34:42;;;;;;;26.90;20.15;;;;;;;;;;4972629;28;20059;-63
2021/10/18 09:37:28;;;;;;;25.52;21.00;;;;;;;;;;4972674;28;20121;-63
2021/10/18 09:40:29;;;;;;;23.77;19.27;;;;;;;;;;4971816;28;20054;-63
2021/10/18 09:43:16;;;;;;;28.13;21.15;;;;;;;;;;4973033;28;20055;-63
2021/10/18 09:46:07;;;;;;;23.25;20.02;;;;;;;;;;4971989;28;20082;-64
2021/10/18 10:51:41;;;;;;;22.65;19.10;;;;;;;;;;4975133;28;20130;-63
2021/10/18 10:54:34;;;;;;;19.40;17.30;;;;;;;;;;4975052;28;20058;-63
2021/10/18 10:57:31;;;;;;;21.33;16.92;;;;;;;;;;4975010;28;20047;-64
2021/10/18 11:00:35;;;;;;;19.40;16.63;;;;;;;;;;4973724;28;20141;-64
2021/10/18 11:03:23;;;;;;;19.40;16.75;;;;;;;;;;4975171;28;20129;-64
2021/10/18 11:06:15;;;;;;;20.88;16.08;;;;;;;;;;4974897;28;20055;-64
2021/10/18 11:09:00;;;;;;;19.77;15.95;;;;;;;;;;4975034;28;20054;-64
2021/10/18 11:11:45;;;;;;;17.30;15.00;;;;;;;;;;4980281;28;20054;-63
2021/10/18 11:14:31;;;;;;;17.77;15.77;;;;;;;;;;4980143;28;20059;-65
2021/10/18 11:17:16;;;;;;;18.38;14.98;;;;;;;;;;4980018;28;20057;-65
2021/10/18 11:20:05;;;;;;;18.00;15.95;;;;;;;;;;4980729;28;20326;-65
2021/10/18 11:22:52;;;;;;;16.25;14.43;;;;;;;;;;4979856;28;20506;-64
2021/10/18 11:25:38;;;;;;;17.80;13.75;;;;;;;;;;4980011;28;20510;-65
2021/10/18 11:28:23;;;;;;;17.83;14.82;;;;;;;;;;4982036;28;20067;-65
2021/10/18 11:31:10;;;;;;;15.43;13.82;;;;;;;;;;4980945;28;20058;-64
2021/10/18 11:34:01;;;;;;;16.88;15.10;;;;;;;;;;4980261;28;20062;-65
2021/10/18 11:36:47;;;;;;;16.52;14.75;;;;;;;;;;4980366;28;20054;-65
2021/10/18 11:39:32;;;;;;;17.55;14.48;;;;;;;;;;4980311;28;20472;-64
2021/10/18 11:42:18;;;;;;;16.33;13.80;;;;;;;;;;4987053;28;20050;-64
2021/10/18 11:45:03;;;;;;;18.25;14.65;;;;;;;;;;4982541;28;20125;-66
2021/10/18 11:47:49;;;;;;;17.80;14.55;;;;;;;;;;4984606;28;20405;-64
2021/10/18 11:50:36;;;;;;;15.85;14.15;;;;;;;;;;4995970;28;20125;-65
2021/10/18 11:53:22;;;;;;;16.05;12.45;;;;;;;;;;4984665;28;20062;-65
2021/10/18 11:56:09;;;;;;;17.25;14.13;;;;;;;;;;4982056;28;20060;-64
2021/10/18 11:58:54;;;;;;;16.00;13.85;;;;;;;;;;4994762;28;20061;-63
2021/10/18 12:01:39;;;;;;;15.05;12.10;;;;;;;;;;4993822;28;20101;-65
2021/10/18 12:04:25;;;;;;;14.77;12.55;;;;;;;;;;4994647;28;20074;-63
2021/10/18 12:07:10;;;;;;;14.07;12.65;;;;;;;;;;4993971;28;20440;-64
2021/10/18 12:10:10;;;;;;;15.32;13.57;;;;;;;;;;4990449;28;20058;-65
2021/10/18 12:13:03;;;;;;;17.65;14.73;;;;;;;;;;4990956;28;20516;-63
2021/10/18 12:15:52;;;;;;;15.65;12.43;;;;;;;;;;4990416;28;20058;-64
2021/10/18 12:18:47;;;;;;;14.85;13.25;;;;;;;;;;4990327;28;20125;-64
2021/10/18 12:21:35;;;;;;;15.77;14.10;;;;;;;;;;4991530;28;20054;-63
2021/10/18 12:24:21;;;;;;;15.00;12.68;;;;;;;;;;4991209;28;20066;-65
2021/10/18 12:27:10;;;;;;;16.08;14.07;;;;;;;;;;4976190;28;20529;-63
2021/10/18 12:29:55;;;;;;;17.38;14.07;;;;;;;;;;4970351;28;20047;-64
2021/10/18 12:32:40;;;;;;;16.17;13.23;;;;;;;;;;4971699;28;20046;-64
2021/10/18 12:35:25;;;;;;;13.93;12.38;;;;;;;;;;4970500;28;20051;-64
2021/10/18 12:38:11;;;;;;;15.27;13.65;;;;;;;;;;4971511;28;20047;-63
2021/10/18 12:41:06;;;;;;;15.77;12.48;;;;;;;;;;4965696;28;20050;-63
2021/10/18 12:43:51;;;;;;;14.13;12.63;;;;;;;;;;4971067;28;20047;-64
2021/10/18 12:46:38;;;;;;;16.05;13.15;;;;;;;;;;4973723;28;21110;-64
2021/10/18 12:49:32;;;;;;;15.18;12.50;;;;;;;;;;4976892;28;20063;-63
2021/10/18 12:52:25;;;;;;;16.90;13.15;;;;;;;;;;4973045;28;20050;-64
2021/10/18 12:55:12;;;;;;;17.23;13.52;;;;;;;;;;4970651;28;20051;-64
2021/10/18 12:57:58;;;;;;;18.35;12.50;;;;;;;;;;4989991;28;20417;-63
2021/10/18 13:00:43;;;;;;;15.82;13.20;;;;;;;;;;4990614;28;20054;-65
2021/10/18 13:03:28;;;;;;;14.98;13.20;;;;;;;;;;4990440;28;20046;-64
2021/10/18 13:06:17;;;;;;;15.98;13.43;;;;;;;;;;4989647;28;20050;-63
2021/10/18 13:09:02;;;;;;;16.42;12.98;;;;;;;;;;4986367;28;20061;-63
2021/10/18 13:11:47;;;;;;;14.18;12.23;;;;;;;;;;4989718;28;20109;-63
2021/10/18 13:14:32;;;;;;;20.50;13.00;;;;;;;;;;4989298;28;20050;-63
2021/10/18 13:17:17;;;;;;;13.52;12.02;;;;;;;;;;4983346;28;20673;-64
2021/10/18 13:20:02;;;;;;;14.43;11.32;;;;;;;;;;4977360;28;20079;-64
2021/10/18 13:22:48;;;;;;;15.90;11.90;;;;;;;;;;4981227;28;20063;-63
2021/10/18 13:25:33;;;;;;;15.30;12.88;;;;;;;;;;4993883;28;20054;-63
2021/10/18 13:28:19;;;;;;;16.52;13.50;;;;;;;;;;4981762;28;20050;-65
2021/10/18 13:31:04;;;;;;;14.95;12.82;;;;;;;;;;4981748;28;20093;-63
2021/10/18 13:33:49;;;;;;;15.70;13.38;;;;;;;;;;4997468;28;20492;-64
2021/10/18 13:36:35;;;;;;;14.32;10.80;;;;;;;;;;5001249;28;20052;-64
2021/10/18 13:39:20;;;;;;;16.33;12.75;;;;;;;;;;5000485;28;20061;-65
2021/10/18 13:42:05;;;;;;;13.48;10.93;;;;;;;;;;5000909;28;20058;-64
2021/10/18 13:44:51;;;;;;;14.32;11.38;;;;;;;;;;4995671;28;20127;-63
2021/10/18 13:47:36;;;;;;;16.83;12.15;;;;;;;;;;4994528;28;20042;-65
2021/10/18 13:50:21;;;;;;;14.70;11.68;;;;;;;;;;4983590;28;20464;-63
2021/10/18 13:53:07;;;;;;;15.73;10.95;;;;;;;;;;4979151;28;20054;-64
2021/10/18 13:55:52;;;;;;;15.27;11.20;;;;;;;;;;4985555;28;20054;-63
2021/10/18 13:58:39;;;;;;;14.32;11.55;;;;;;;;;;4980869;28;20042;-66
2021/10/18 14:01:24;;;;;;;14.75;11.77;;;;;;;;;;4981163;28;20553;-64
2021/10/18 14:04:13;;;;;;;13.55;11.30;;;;;;;;;;4986136;23;20062;31
2021/10/18 14:06:59;;;;;;;16.77;12.23;;;;;;;;;;4854703;29;20152;-65
2021/10/18 14:09:44;;;;;;;17.88;13.05;;;;;;;;;;4857198;29;20057;-62
2021/10/18 14:12:30;;;;;;;17.40;13.32;;;;;;;;;;4858573;29;20390;-63
2021/10/18 14:15:15;;;;;;;16.40;12.77;;;;;;;;;;4857722;29;20543;-62
2021/10/18 14:18:00;;;;;;;20.30;12.57;;;;;;;;;;4857760;29;20053;-63
2021/10/18 14:20:45;;;;;;;14.27;12.75;;;;;;;;;;4857880;29;20058;-63
2021/10/18 14:23:32;;;;;;;17.75;13.43;;;;;;;;;;4857781;28;20049;-63
2021/10/18 14:26:18;;;;;;;15.27;11.38;;;;;;;;;;4865365;29;20065;-62
2021/10/18 14:29:03;;;;;;;13.95;12.40;;;;;;;;;;4863667;28;20492;-63
2021/10/18 14:31:49;;;;;;;16.00;12.30;;;;;;;;;;4856814;29;20500;-63
2021/10/18 14:34:34;;;;;;;14.93;12.82;;;;;;;;;;4856239;29;20045;-62
2021/10/18 14:37:19;;;;;;;21.80;12.73;;;;;;;;;;4943031;29;20448;-63
2021/10/18 14:40:05;;;;;;;15.93;12.77;;;;;;;;;;4954236;28;20122;-62
2021/10/18 14:42:50;;;;;;;17.45;12.15;;;;;;;;;;4954456;29;20102;-63
2021/10/18 14:45:36;;;;;;;16.35;12.32;;;;;;;;;;4954191;28;20502;-63
2021/10/18 14:48:21;;;;;;;12.45;10.80;;;;;;;;;;4952070;28;20133;-63
2021/10/18 14:51:08;;;;;;;16.75;11.45;;;;;;;;;;4954555;29;20059;-62
2021/10/18 14:53:54;;;;;;;17.70;11.98;;;;;;;;;;4952461;28;20062;-62
2021/10/18 14:56:40;;;;;;;14.15;11.57;;;;;;;;;;4953877;28;20134;-62
2021/10/18 14:59:25;;;;;;;15.98;12.30;;;;;;;;;;4954835;28;20426;-63
2021/10/18 15:02:13;;;;;;;15.77;12.55;;;;;;;;;;4953922;29;20051;-63
2021/10/18 15:04:58;;;;;;;13.38;11.90;;;;;;;;;;4953476;28;20529;-64
2021/10/18 15:07:45;;;;;;;14.65;11.52;;;;;;;;;;4953639;29;20051;-62
2021/10/18 15:10:30;;;;;;;16.33;11.95;;;;;;;;;;4954038;28;20059;-62
2021/10/18 15:13:15;;;;;;;13.35;11.60;;;;;;;;;;4953984;29;20055;-63
2021/10/18 15:16:02;;;;;;;13.27;10.95;;;;;;;;;;4953130;28;20051;-63
2021/10/18 15:18:47;;;;;;;15.52;12.15;;;;;;;;;;4953577;29;20047;-64
2021/10/18 15:21:35;;;;;;;12.85;10.82;;;;;;;;;;4953948;28;20509;-62
2021/10/18 15:24:20;;;;;;;16.33;11.23;;;;;;;;;;4952806;28;20395;-64
2021/10/18 15:27:06;;;;;;;15.50;12.27;;;;;;;;;;4953173;28;20055;-63
2021/10/18 15:29:51;;;;;;;18.38;11.57;;;;;;;;;;4953647;28;20088;-63
2021/10/18 15:32:37;;;;;;;13.18;11.02;;;;;;;;;;4953736;29;20059;-63
2021/10/18 15:35:22;;;;;;;15.25;11.45;;;;;;;;;;4938734;29;20098;-63
2021/10/18 15:38:07;;;;;;;14.18;11.45;;;;;;;;;;4951666;28;20047;-62
2021/10/18 15:40:52;;;;;;;16.45;12.10;;;;;;;;;;4952338;28;20055;-63
2021/10/18 15:43:37;;;;;;;14.32;11.45;;;;;;;;;;4956531;29;20051;-64
2021/10/18 15:46:23;;;;;;;14.65;12.13;;;;;;;;;;4956351;28;20055;-62
2021/10/18 15:49:08;;;;;;;13.90;11.55;;;;;;;;;;4950564;29;20126;-62
2021/10/18 15:51:53;;;;;;;14.02;12.52;;;;;;;;;;4967069;28;20055;-63
2021/10/18 15:54:38;;;;;;;14.68;11.90;;;;;;;;;;4951449;29;20051;-64
2021/10/18 15:57:24;;;;;;;15.05;12.68;;;;;;;;;;4965618;28;20055;-63
2021/10/18 16:00:09;;;;;;;14.02;12.50;;;;;;;;;;4952420;28;20060;-63
2021/10/18 16:02:57;;;;;;;13.18;11.73;;;;;;;;;;4952708;28;20138;-64
2021/10/18 16:05:43;;;;;;;15.13;13.55;;;;;;;;;;4952701;28;20409;-63
2021/10/18 16:08:28;;;;;;;17.90;14.05;;;;;;;;;;4953627;29;20220;-63
2021/10/18 16:11:13;;;;;;;16.25;13.95;;;;;;;;;;4953762;28;20047;-62
2021/10/18 16:13:59;;;;;;;19.27;13.80;;;;;;;;;;4937750;29;20434;-62
2021/10/18 16:16:44;;;;;;;16.80;12.90;;;;;;;;;;4937860;29;20514;-63
2021/10/18 16:19:29;;;;;;;15.63;13.50;;;;;;;;;;4952631;29;20498;-63
2021/10/18 16:22:15;;;;;;;17.27;13.23;;;;;;;;;;4955900;28;20069;-63
2021/10/18 16:25:00;;;;;;;17.02;13.00;;;;;;;;;;4954669;29;20052;-64
2021/10/18 16:27:45;;;;;;;18.10;13.98;;;;;;;;;;4954622;28;20047;-64
2021/10/18 16:30:30;;;;;;;18.27;13.50;;;;;;;;;;4953340;29;20405;-62
2021/10/18 16:33:16;;;;;;;17.52;13.55;;;;;;;;;;4929688;29;20540;-64
2021/10/18 16:36:01;;;;;;;16.40;14.18;;;;;;;;;;4860860;29;20125;-64
2021/10/18 16:38:46;;;;;;;16.90;13.93;;;;;;;;;;4856516;29;20508;-62
2021/10/18 16:41:31;;;;;;;20.63;14.98;;;;;;;;;;4867674;28;20050;-62
2021/10/18 16:44:16;;;;;;;17.83;15.25;;;;;;;;;;4843372;29;20085;-63
2021/10/18 16:47:02;;;;;;;17.58;15.38;;;;;;;;;;4910090;28;20679;-62
2021/10/18 16:49:46;;;;;;;17.85;14.45;;;;;;;;;;4914878;29;20070;-63
2021/10/18 16:52:32;;;;;;;17.63;14.38;;;;;;;;;;4855711;29;20061;-62
2021/10/18 16:55:17;;;;;;;20.42;15.98;;;;;;;;;;4893855;29;20065;-62
2021/10/18 16:58:03;;;;;;;19.70;15.10;;;;;;;;;;4844981;29;20057;-62
2021/10/18 17:00:48;;;;;;;17.77;15.15;;;;;;;;;;4843445;29;20057;-62
2021/10/18 17:03:34;;;;;;;22.45;15.45;;;;;;;;;;4914801;29;20053;-62
2021/10/18 17:06:19;;;;;;;18.67;15.02;;;;;;;;;;4914710;29;20460;-62
2021/10/18 17:09:04;;;;;;;18.70;15.10;;;;;;;;;;4853103;29;20054;-62
2021/10/18 17:11:50;;;;;;;20.63;15.75;;;;;;;;;;4854258;29;20058;-62
2021/10/18 17:14:37;;;;;;;16.30;14.38;;;;;;;;;;4854472;29;20715;-62
2021/10/18 17:17:22;;;;;;;17.60;15.50;;;;;;;;;;4854708;29;20128;-64